sensor_id;sensor_type;location;lat;lon;timestamp;temperature;humidity
10282;DHT22;5186;59.472;18.048;2022-07-17T00:00:52;14.90;99.90
10282;DHT22;5186;59.472;18.048;2022-07-17T00:03:18;14.90;99.90
10282;DHT22;5186;59.472;18.048;2022-07-17T00:05:44;14.90;99.90
10282;DHT22;5186;59.472;18.048;2022-07-17T00:08:10;14.90;99.90
10282;DHT22;5186;59.472;18.048;2022-07-17T00:10:38;14.90;99.90
10282;DHT22;5186;59.472;18.048;2022-07-17T00:13:04;14.90;99.90
10282;DHT22;5186;59.472;18.048;2022-07-17T00:15:32;14.90;99.90
10282;DHT22;5186;59.472;18.048;2022-07-17T00:17:58;14.90;99.90
10282;DHT22;5186;59.472;18.048;2022-07-17T00:20:25;14.90;99.90
10282;DHT22;5186;59.472;18.048;2022-07-17T00:22:54;14.90;99.90
10282;DHT22;5186;59.472;18.048;2022-07-17T00:25:24;14.90;99.90
10282;DHT22;5186;59.472;18.048;2022-07-17T00:27:50;14.90;99.90
10282;DHT22;5186;59.472;18.048;2022-07-17T00:30:16;14.90;99.90
10282;DHT22;5186;59.472;18.048;2022-07-17T00:32:42;14.90;99.90
10282;DHT22;5186;59.472;18.048;2022-07-17T00:35:08;14.80;99.90
10282;DHT22;5186;59.472;18.048;2022-07-17T00:37:42;14.80;99.90
10282;DHT22;5186;59.472;18.048;2022-07-17T00:40:10;14.90;99.90
10282;DHT22;5186;59.472;18.048;2022-07-17T00:42:41;14.90;99.90
10282;DHT22;5186;59.472;18.048;2022-07-17T00:45:08;14.90;99.90
10282;DHT22;5186;59.472;18.048;2022-07-17T00:47:55;14.90;99.90
10282;DHT22;5186;59.472;18.048;2022-07-17T00:50:23;14.80;99.90
10282;DHT22;5186;59.472;18.048;2022-07-17T00:52:49;14.90;99.90
10282;DHT22;5186;59.472;18.048;2022-07-17T00:55:16;14.80;99.90
10282;DHT22;5186;59.472;18.048;2022-07-17T00:57:45;14.80;99.90
10282;DHT22;5186;59.472;18.048;2022-07-17T01:00:14;14.80;99.90
10282;DHT22;5186;59.472;18.048;2022-07-17T01:02:44;14.80;99.90
10282;DHT22;5186;59.472;18.048;2022-07-17T01:05:10;14.90;99.90
10282;DHT22;5186;59.472;18.048;2022-07-17T01:07:36;14.90;99.90
10282;DHT22;5186;59.472;18.048;2022-07-17T01:10:02;14.90;99.90
10282;DHT22;5186;59.472;18.048;2022-07-17T01:12:28;14.90;99.90
10282;DHT22;5186;59.472;18.048;2022-07-17T01:14:55;14.90;99.90
10282;DHT22;5186;59.472;18.048;2022-07-17T01:17:22;14.90;99.90
10282;DHT22;5186;59.472;18.048;2022-07-17T01:19:51;14.90;99.90
10282;DHT22;5186;59.472;18.048;2022-07-17T01:22:16;14.80;99.90
10282;DHT22;5186;59.472;18.048;2022-07-17T01:24:42;14.80;99.90
10282;DHT22;5186;59.472;18.048;2022-07-17T01:27:08;14.80;99.90
10282;DHT22;5186;59.472;18.048;2022-07-17T01:29:36;14.80;99.90
10282;DHT22;5186;59.472;18.048;2022-07-17T01:32:02;14.80;99.90
10282;DHT22;5186;59.472;18.048;2022-07-17T01:34:28;14.70;99.90
10282;DHT22;5186;59.472;18.048;2022-07-17T01:36:54;14.80;99.90
10282;DHT22;5186;59.472;18.048;2022-07-17T01:39:20;14.70;99.90
10282;DHT22;5186;59.472;18.048;2022-07-17T01:42:05;14.70;99.90
10282;DHT22;5186;59.472;18.048;2022-07-17T01:44:31;14.60;99.90
10282;DHT22;5186;59.472;18.048;2022-07-17T01:46:57;14.60;99.90
10282;DHT22;5186;59.472;18.048;2022-07-17T01:49:22;14.60;99.90
10282;DHT22;5186;59.472;18.048;2022-07-17T01:51:48;14.60;99.90
10282;DHT22;5186;59.472;18.048;2022-07-17T01:54:15;14.50;99.90
10282;DHT22;5186;59.472;18.048;2022-07-17T01:56:41;14.50;99.90
10282;DHT22;5186;59.472;18.048;2022-07-17T01:59:07;14.50;99.90
10282;DHT22;5186;59.472;18.048;2022-07-17T02:01:33;14.50;99.90
10282;DHT22;5186;59.472;18.048;2022-07-17T02:03:59;14.40;99.90
10282;DHT22;5186;59.472;18.048;2022-07-17T02:06:25;14.40;99.90
10282;DHT22;5186;59.472;18.048;2022-07-17T02:08:52;14.40;99.90
10282;DHT22;5186;59.472;18.048;2022-07-17T02:11:18;14.40;99.90
10282;DHT22;5186;59.472;18.048;2022-07-17T02:13:44;14.40;99.90
10282;DHT22;5186;59.472;18.048;2022-07-17T02:16:09;14.40;99.90
10282;DHT22;5186;59.472;18.048;2022-07-17T02:18:36;14.30;99.90
10282;DHT22;5186;59.472;18.048;2022-07-17T02:21:03;14.30;99.90
10282;DHT22;5186;59.472;18.048;2022-07-17T02:23:28;14.30;99.90
10282;DHT22;5186;59.472;18.048;2022-07-17T02:25:55;14.30;99.90
10282;DHT22;5186;59.472;18.048;2022-07-17T02:28:21;14.30;99.90
10282;DHT22;5186;59.472;18.048;2022-07-17T02:30:47;14.30;99.90
10282;DHT22;5186;59.472;18.048;2022-07-17T02:33:13;14.30;99.90
10282;DHT22;5186;59.472;18.048;2022-07-17T02:35:40;14.30;99.90
10282;DHT22;5186;59.472;18.048;2022-07-17T02:38:10;14.30;99.90
10282;DHT22;5186;59.472;18.048;2022-07-17T02:40:35;14.30;99.90
10282;DHT22;5186;59.472;18.048;2022-07-17T02:43:03;14.30;99.90
10282;DHT22;5186;59.472;18.048;2022-07-17T02:45:28;14.30;99.90
10282;DHT22;5186;59.472;18.048;2022-07-17T02:47:54;14.30;99.90
10282;DHT22;5186;59.472;18.048;2022-07-17T02:50:21;14.30;99.90
10282;DHT22;5186;59.472;18.048;2022-07-17T02:52:48;14.40;99.90
10282;DHT22;5186;59.472;18.048;2022-07-17T02:55:16;14.40;99.90
10282;DHT22;5186;59.472;18.048;2022-07-17T02:57:43;14.40;99.90
10282;DHT22;5186;59.472;18.048;2022-07-17T03:00:11;14.30;99.90
10282;DHT22;5186;59.472;18.048;2022-07-17T03:02:37;14.30;99.90
10282;DHT22;5186;59.472;18.048;2022-07-17T03:05:04;14.30;99.90
10282;DHT22;5186;59.472;18.048;2022-07-17T03:07:31;14.30;99.90
10282;DHT22;5186;59.472;18.048;2022-07-17T03:09:58;14.40;99.90
10282;DHT22;5186;59.472;18.048;2022-07-17T03:12:25;14.30;99.90
10282;DHT22;5186;59.472;18.048;2022-07-17T03:14:51;14.40;99.90
10282;DHT22;5186;59.472;18.048;2022-07-17T03:17:17;14.40;99.90
10282;DHT22;5186;59.472;18.048;2022-07-17T03:19:42;14.40;99.90
10282;DHT22;5186;59.472;18.048;2022-07-17T03:22:08;14.40;99.90
10282;DHT22;5186;59.472;18.048;2022-07-17T03:24:35;14.40;99.90
10282;DHT22;5186;59.472;18.048;2022-07-17T03:27:01;14.40;99.90
10282;DHT22;5186;59.472;18.048;2022-07-17T03:29:27;14.40;99.90
10282;DHT22;5186;59.472;18.048;2022-07-17T03:31:54;14.30;99.90
10282;DHT22;5186;59.472;18.048;2022-07-17T03:34:19;14.30;99.90
10282;DHT22;5186;59.472;18.048;2022-07-17T03:36:46;14.30;99.90
10282;DHT22;5186;59.472;18.048;2022-07-17T03:39:12;14.30;99.90
10282;DHT22;5186;59.472;18.048;2022-07-17T03:41:38;14.30;99.90
10282;DHT22;5186;59.472;18.048;2022-07-17T03:44:03;14.30;99.90
10282;DHT22;5186;59.472;18.048;2022-07-17T03:46:29;14.40;99.90
10282;DHT22;5186;59.472;18.048;2022-07-17T03:48:55;14.40;99.90
10282;DHT22;5186;59.472;18.048;2022-07-17T03:51:21;14.50;99.90
10282;DHT22;5186;59.472;18.048;2022-07-17T03:53:46;14.50;99.90
10282;DHT22;5186;59.472;18.048;2022-07-17T03:56:12;14.50;99.90
10282;DHT22;5186;59.472;18.048;2022-07-17T03:58:38;14.50;99.90
10282;DHT22;5186;59.472;18.048;2022-07-17T04:01:03;14.50;99.90
10282;DHT22;5186;59.472;18.048;2022-07-17T04:03:29;14.60;99.90
10282;DHT22;5186;59.472;18.048;2022-07-17T04:05:55;14.60;99.90
10282;DHT22;5186;59.472;18.048;2022-07-17T04:08:20;14.60;99.90
10282;DHT22;5186;59.472;18.048;2022-07-17T04:10:46;14.60;99.90
10282;DHT22;5186;59.472;18.048;2022-07-17T04:13:12;14.60;99.90
10282;DHT22;5186;59.472;18.048;2022-07-17T04:15:38;14.60;99.90
10282;DHT22;5186;59.472;18.048;2022-07-17T04:18:26;14.50;99.90
10282;DHT22;5186;59.472;18.048;2022-07-17T04:20:53;14.50;99.90
10282;DHT22;5186;59.472;18.048;2022-07-17T04:23:19;14.60;99.90
10282;DHT22;5186;59.472;18.048;2022-07-17T04:25:45;14.60;99.90
10282;DHT22;5186;59.472;18.048;2022-07-17T04:28:11;14.70;99.90
10282;DHT22;5186;59.472;18.048;2022-07-17T04:30:40;14.70;99.90
10282;DHT22;5186;59.472;18.048;2022-07-17T04:33:06;14.80;99.90
10282;DHT22;5186;59.472;18.048;2022-07-17T04:35:32;14.90;99.90
10282;DHT22;5186;59.472;18.048;2022-07-17T04:37:58;14.90;99.90
10282;DHT22;5186;59.472;18.048;2022-07-17T04:40:24;14.90;99.90
10282;DHT22;5186;59.472;18.048;2022-07-17T04:42:49;15.00;99.90
10282;DHT22;5186;59.472;18.048;2022-07-17T04:45:15;15.00;99.90
10282;DHT22;5186;59.472;18.048;2022-07-17T04:47:41;15.00;99.90
10282;DHT22;5186;59.472;18.048;2022-07-17T04:50:08;15.00;99.90
10282;DHT22;5186;59.472;18.048;2022-07-17T04:52:34;15.10;99.90
10282;DHT22;5186;59.472;18.048;2022-07-17T04:55:00;15.10;99.90
10282;DHT22;5186;59.472;18.048;2022-07-17T04:57:26;15.10;99.90
10282;DHT22;5186;59.472;18.048;2022-07-17T05:00:05;15.10;99.90
10282;DHT22;5186;59.472;18.048;2022-07-17T05:02:31;15.20;99.90
10282;DHT22;5186;59.472;18.048;2022-07-17T05:04:57;15.30;99.90
10282;DHT22;5186;59.472;18.048;2022-07-17T05:07:23;15.30;99.90
10282;DHT22;5186;59.472;18.048;2022-07-17T05:09:50;15.40;99.90
10282;DHT22;5186;59.472;18.048;2022-07-17T05:12:16;15.40;99.90
10282;DHT22;5186;59.472;18.048;2022-07-17T05:14:42;15.40;99.90
10282;DHT22;5186;59.472;18.048;2022-07-17T05:17:08;15.50;99.90
10282;DHT22;5186;59.472;18.048;2022-07-17T05:19:34;15.50;99.90
10282;DHT22;5186;59.472;18.048;2022-07-17T05:22:01;15.50;99.90
10282;DHT22;5186;59.472;18.048;2022-07-17T05:24:27;15.50;99.90
10282;DHT22;5186;59.472;18.048;2022-07-17T05:26:54;15.60;99.90
10282;DHT22;5186;59.472;18.048;2022-07-17T05:29:20;15.50;99.90
10282;DHT22;5186;59.472;18.048;2022-07-17T05:31:46;15.60;99.90
10282;DHT22;5186;59.472;18.048;2022-07-17T05:34:12;15.60;99.90
10282;DHT22;5186;59.472;18.048;2022-07-17T05:36:38;15.60;99.90
10282;DHT22;5186;59.472;18.048;2022-07-17T05:39:04;15.60;99.90
10282;DHT22;5186;59.472;18.048;2022-07-17T05:41:30;15.60;99.90
10282;DHT22;5186;59.472;18.048;2022-07-17T05:43:56;15.70;99.90
10282;DHT22;5186;59.472;18.048;2022-07-17T05:46:22;15.70;99.90
10282;DHT22;5186;59.472;18.048;2022-07-17T05:48:48;15.80;99.90
10282;DHT22;5186;59.472;18.048;2022-07-17T05:51:14;15.80;99.90
10282;DHT22;5186;59.472;18.048;2022-07-17T05:53:40;15.80;99.90
10282;DHT22;5186;59.472;18.048;2022-07-17T05:56:06;15.90;99.90
10282;DHT22;5186;59.472;18.048;2022-07-17T05:58:32;16.00;99.90
10282;DHT22;5186;59.472;18.048;2022-07-17T06:00:57;16.00;99.90
10282;DHT22;5186;59.472;18.048;2022-07-17T06:03:23;16.00;99.90
10282;DHT22;5186;59.472;18.048;2022-07-17T06:05:49;15.90;99.90
10282;DHT22;5186;59.472;18.048;2022-07-17T06:08:15;15.90;99.90
10282;DHT22;5186;59.472;18.048;2022-07-17T06:10:41;16.00;99.90
10282;DHT22;5186;59.472;18.048;2022-07-17T06:13:07;16.00;99.90
10282;DHT22;5186;59.472;18.048;2022-07-17T06:15:33;16.10;99.90
10282;DHT22;5186;59.472;18.048;2022-07-17T06:18:02;16.10;99.90
10282;DHT22;5186;59.472;18.048;2022-07-17T06:20:29;16.20;99.90
10282;DHT22;5186;59.472;18.048;2022-07-17T06:22:55;16.20;99.90
10282;DHT22;5186;59.472;18.048;2022-07-17T06:25:21;16.20;99.90
10282;DHT22;5186;59.472;18.048;2022-07-17T06:27:47;16.20;99.90
10282;DHT22;5186;59.472;18.048;2022-07-17T06:30:14;16.30;99.90
10282;DHT22;5186;59.472;18.048;2022-07-17T06:32:41;16.30;99.90
10282;DHT22;5186;59.472;18.048;2022-07-17T06:35:07;16.40;99.90
10282;DHT22;5186;59.472;18.048;2022-07-17T06:37:34;16.40;99.90
10282;DHT22;5186;59.472;18.048;2022-07-17T06:40:00;16.40;99.90
10282;DHT22;5186;59.472;18.048;2022-07-17T06:42:26;16.40;99.90
10282;DHT22;5186;59.472;18.048;2022-07-17T06:44:52;16.40;99.90
10282;DHT22;5186;59.472;18.048;2022-07-17T06:47:18;16.50;99.90
10282;DHT22;5186;59.472;18.048;2022-07-17T06:49:44;16.50;99.90
10282;DHT22;5186;59.472;18.048;2022-07-17T06:52:10;16.50;99.90
10282;DHT22;5186;59.472;18.048;2022-07-17T06:54:36;16.50;99.90
10282;DHT22;5186;59.472;18.048;2022-07-17T06:57:02;16.50;99.90
10282;DHT22;5186;59.472;18.048;2022-07-17T06:59:28;16.50;99.90
10282;DHT22;5186;59.472;18.048;2022-07-17T07:01:54;16.50;99.90
10282;DHT22;5186;59.472;18.048;2022-07-17T07:04:20;16.50;99.90
10282;DHT22;5186;59.472;18.048;2022-07-17T07:06:46;16.70;99.90
10282;DHT22;5186;59.472;18.048;2022-07-17T07:09:12;16.60;99.90
10282;DHT22;5186;59.472;18.048;2022-07-17T07:11:39;16.60;99.90
10282;DHT22;5186;59.472;18.048;2022-07-17T07:14:06;16.60;99.90
10282;DHT22;5186;59.472;18.048;2022-07-17T07:16:33;16.60;99.90
10282;DHT22;5186;59.472;18.048;2022-07-17T07:18:59;16.60;99.90
10282;DHT22;5186;59.472;18.048;2022-07-17T07:21:25;16.70;99.90
10282;DHT22;5186;59.472;18.048;2022-07-17T07:23:52;16.70;99.90
10282;DHT22;5186;59.472;18.048;2022-07-17T07:26:18;16.70;99.90
10282;DHT22;5186;59.472;18.048;2022-07-17T07:28:44;16.80;99.90
10282;DHT22;5186;59.472;18.048;2022-07-17T07:31:11;16.80;99.90
10282;DHT22;5186;59.472;18.048;2022-07-17T07:33:37;16.80;99.90
10282;DHT22;5186;59.472;18.048;2022-07-17T07:36:03;16.70;99.90
10282;DHT22;5186;59.472;18.048;2022-07-17T07:38:29;16.80;99.90
10282;DHT22;5186;59.472;18.048;2022-07-17T07:40:55;16.90;99.90
10282;DHT22;5186;59.472;18.048;2022-07-17T07:43:20;17.00;99.90
10282;DHT22;5186;59.472;18.048;2022-07-17T07:45:46;17.00;99.90
10282;DHT22;5186;59.472;18.048;2022-07-17T07:48:12;17.00;99.90
10282;DHT22;5186;59.472;18.048;2022-07-17T07:50:37;17.10;99.90
10282;DHT22;5186;59.472;18.048;2022-07-17T07:53:03;17.10;99.90
10282;DHT22;5186;59.472;18.048;2022-07-17T07:55:29;17.20;99.90
10282;DHT22;5186;59.472;18.048;2022-07-17T07:58:02;17.20;99.90
10282;DHT22;5186;59.472;18.048;2022-07-17T08:00:28;17.30;99.90
10282;DHT22;5186;59.472;18.048;2022-07-17T08:02:54;17.30;99.90
10282;DHT22;5186;59.472;18.048;2022-07-17T08:05:19;17.20;99.90
10282;DHT22;5186;59.472;18.048;2022-07-17T08:07:45;17.20;99.90
10282;DHT22;5186;59.472;18.048;2022-07-17T08:10:11;17.40;99.90
10282;DHT22;5186;59.472;18.048;2022-07-17T08:12:37;17.40;99.90
10282;DHT22;5186;59.472;18.048;2022-07-17T08:15:04;17.40;99.90
10282;DHT22;5186;59.472;18.048;2022-07-17T08:17:31;17.40;99.90
10282;DHT22;5186;59.472;18.048;2022-07-17T08:19:57;17.50;99.90
10282;DHT22;5186;59.472;18.048;2022-07-17T08:22:23;17.50;99.90
10282;DHT22;5186;59.472;18.048;2022-07-17T08:24:49;17.60;99.90
10282;DHT22;5186;59.472;18.048;2022-07-17T08:27:15;17.70;99.90
10282;DHT22;5186;59.472;18.048;2022-07-17T08:29:41;17.70;99.90
10282;DHT22;5186;59.472;18.048;2022-07-17T08:32:07;17.70;99.90
10282;DHT22;5186;59.472;18.048;2022-07-17T08:34:33;17.70;99.90
10282;DHT22;5186;59.472;18.048;2022-07-17T08:36:59;17.80;99.90
10282;DHT22;5186;59.472;18.048;2022-07-17T08:39:25;17.80;99.90
10282;DHT22;5186;59.472;18.048;2022-07-17T08:41:51;17.90;99.90
10282;DHT22;5186;59.472;18.048;2022-07-17T08:44:17;17.90;99.90
10282;DHT22;5186;59.472;18.048;2022-07-17T08:46:43;17.90;99.90
10282;DHT22;5186;59.472;18.048;2022-07-17T08:49:10;17.90;99.90
10282;DHT22;5186;59.472;18.048;2022-07-17T08:51:37;17.90;99.90
10282;DHT22;5186;59.472;18.048;2022-07-17T08:54:03;18.00;99.90
10282;DHT22;5186;59.472;18.048;2022-07-17T08:56:29;18.00;99.90
10282;DHT22;5186;59.472;18.048;2022-07-17T08:58:55;18.10;99.90
10282;DHT22;5186;59.472;18.048;2022-07-17T09:01:21;18.20;99.90
10282;DHT22;5186;59.472;18.048;2022-07-17T09:03:59;18.10;99.90
10282;DHT22;5186;59.472;18.048;2022-07-17T09:06:31;18.10;99.90
10282;DHT22;5186;59.472;18.048;2022-07-17T09:09:14;18.10;99.90
10282;DHT22;5186;59.472;18.048;2022-07-17T09:11:51;18.10;99.90
10282;DHT22;5186;59.472;18.048;2022-07-17T09:14:20;18.10;99.90
10282;DHT22;5186;59.472;18.048;2022-07-17T09:16:50;18.20;99.90
10282;DHT22;5186;59.472;18.048;2022-07-17T09:19:30;18.20;99.90
10282;DHT22;5186;59.472;18.048;2022-07-17T09:22:12;18.30;99.90
10282;DHT22;5186;59.472;18.048;2022-07-17T09:30:07;18.30;99.90
10282;DHT22;5186;59.472;18.048;2022-07-17T09:32:36;18.40;99.90
10282;DHT22;5186;59.472;18.048;2022-07-17T09:35:04;18.40;99.90
10282;DHT22;5186;59.472;18.048;2022-07-17T09:37:32;18.40;99.90
10282;DHT22;5186;59.472;18.048;2022-07-17T09:39:58;18.50;99.90
10282;DHT22;5186;59.472;18.048;2022-07-17T09:42:30;18.50;99.90
10282;DHT22;5186;59.472;18.048;2022-07-17T09:45:04;18.60;99.90
10282;DHT22;5186;59.472;18.048;2022-07-17T09:47:33;18.50;99.90
10282;DHT22;5186;59.472;18.048;2022-07-17T09:50:00;18.60;99.90
10282;DHT22;5186;59.472;18.048;2022-07-17T09:52:29;18.60;99.90
10282;DHT22;5186;59.472;18.048;2022-07-17T09:54:56;18.70;99.90
10282;DHT22;5186;59.472;18.048;2022-07-17T09:57:28;18.70;99.90
10282;DHT22;5186;59.472;18.048;2022-07-17T09:59:56;18.80;99.90
10282;DHT22;5186;59.472;18.048;2022-07-17T10:02:23;18.80;99.90
10282;DHT22;5186;59.472;18.048;2022-07-17T10:04:51;18.80;99.90
10282;DHT22;5186;59.472;18.048;2022-07-17T10:07:18;18.80;99.90
10282;DHT22;5186;59.472;18.048;2022-07-17T10:09:45;18.70;99.90
10282;DHT22;5186;59.472;18.048;2022-07-17T10:12:11;18.80;99.90
10282;DHT22;5186;59.472;18.048;2022-07-17T10:14:39;18.80;99.90
10282;DHT22;5186;59.472;18.048;2022-07-17T10:17:11;18.80;99.90
10282;DHT22;5186;59.472;18.048;2022-07-17T10:19:53;18.80;99.90
10282;DHT22;5186;59.472;18.048;2022-07-17T10:22:19;18.90;99.90
10282;DHT22;5186;59.472;18.048;2022-07-17T10:24:53;18.90;99.90
10282;DHT22;5186;59.472;18.048;2022-07-17T10:27:25;19.00;99.90
10282;DHT22;5186;59.472;18.048;2022-07-17T10:32:32;19.00;99.90
10282;DHT22;5186;59.472;18.048;2022-07-17T10:35:02;19.10;99.90
10282;DHT22;5186;59.472;18.048;2022-07-17T10:37:38;19.20;99.90
10282;DHT22;5186;59.472;18.048;2022-07-17T10:45:38;19.20;99.90
10282;DHT22;5186;59.472;18.048;2022-07-17T10:48:09;19.20;99.90
10282;DHT22;5186;59.472;18.048;2022-07-17T10:50:40;19.40;99.90
10282;DHT22;5186;59.472;18.048;2022-07-17T10:53:33;19.40;99.90
10282;DHT22;5186;59.472;18.048;2022-07-17T10:56:04;19.50;99.90
10282;DHT22;5186;59.472;18.048;2022-07-17T10:58:38;19.50;99.90
10282;DHT22;5186;59.472;18.048;2022-07-17T11:01:18;19.50;99.90
10282;DHT22;5186;59.472;18.048;2022-07-17T11:03:52;19.60;99.90
10282;DHT22;5186;59.472;18.048;2022-07-17T11:06:19;19.70;99.90
10282;DHT22;5186;59.472;18.048;2022-07-17T11:08:54;19.70;99.90
10282;DHT22;5186;59.472;18.048;2022-07-17T11:14:16;19.60;99.90
10282;DHT22;5186;59.472;18.048;2022-07-17T11:17:02;19.60;99.90
10282;DHT22;5186;59.472;18.048;2022-07-17T11:19:30;19.60;99.90
10282;DHT22;5186;59.472;18.048;2022-07-17T11:21:58;19.60;99.90
10282;DHT22;5186;59.472;18.048;2022-07-17T11:24:34;19.70;99.90
10282;DHT22;5186;59.472;18.048;2022-07-17T11:27:00;19.80;99.90
10282;DHT22;5186;59.472;18.048;2022-07-17T11:29:26;19.80;99.90
10282;DHT22;5186;59.472;18.048;2022-07-17T11:31:56;19.80;99.90
10282;DHT22;5186;59.472;18.048;2022-07-17T11:34:25;19.90;99.90
10282;DHT22;5186;59.472;18.048;2022-07-17T11:36:51;19.80;99.90
10282;DHT22;5186;59.472;18.048;2022-07-17T11:39:24;19.90;99.90
10282;DHT22;5186;59.472;18.048;2022-07-17T11:41:52;20.00;99.90
10282;DHT22;5186;59.472;18.048;2022-07-17T11:44:23;20.00;99.90
10282;DHT22;5186;59.472;18.048;2022-07-17T11:46:51;20.10;99.90
10282;DHT22;5186;59.472;18.048;2022-07-17T11:49:30;20.10;99.90
10282;DHT22;5186;59.472;18.048;2022-07-17T11:51:58;20.10;99.90
10282;DHT22;5186;59.472;18.048;2022-07-17T11:54:25;20.20;99.90
10282;DHT22;5186;59.472;18.048;2022-07-17T11:56:54;20.20;99.90
10282;DHT22;5186;59.472;18.048;2022-07-17T11:59:26;20.10;99.90
10282;DHT22;5186;59.472;18.048;2022-07-17T12:01:54;20.20;99.90
10282;DHT22;5186;59.472;18.048;2022-07-17T12:04:21;20.20;99.90
10282;DHT22;5186;59.472;18.048;2022-07-17T12:06:58;20.30;99.90
10282;DHT22;5186;59.472;18.048;2022-07-17T12:09:30;20.30;99.90
10282;DHT22;5186;59.472;18.048;2022-07-17T12:11:59;20.20;99.90
10282;DHT22;5186;59.472;18.048;2022-07-17T12:14:25;20.20;99.90
10282;DHT22;5186;59.472;18.048;2022-07-17T12:16:52;20.30;99.90
10282;DHT22;5186;59.472;18.048;2022-07-17T12:19:22;20.40;99.90
10282;DHT22;5186;59.472;18.048;2022-07-17T12:26:46;20.60;99.90
10282;DHT22;5186;59.472;18.048;2022-07-17T12:29:13;20.70;99.90
10282;DHT22;5186;59.472;18.048;2022-07-17T12:31:38;20.70;99.90
10282;DHT22;5186;59.472;18.048;2022-07-17T12:34:04;20.70;99.90
10282;DHT22;5186;59.472;18.048;2022-07-17T12:36:30;20.70;99.90
10282;DHT22;5186;59.472;18.048;2022-07-17T12:38:56;20.70;99.90
10282;DHT22;5186;59.472;18.048;2022-07-17T12:41:23;20.70;99.90
10282;DHT22;5186;59.472;18.048;2022-07-17T12:43:49;20.80;99.90
10282;DHT22;5186;59.472;18.048;2022-07-17T12:46:15;20.80;99.90
10282;DHT22;5186;59.472;18.048;2022-07-17T12:48:43;21.00;99.90
10282;DHT22;5186;59.472;18.048;2022-07-17T12:51:11;21.00;99.90
10282;DHT22;5186;59.472;18.048;2022-07-17T12:53:42;21.00;99.90
10282;DHT22;5186;59.472;18.048;2022-07-17T12:56:08;21.20;99.90
10282;DHT22;5186;59.472;18.048;2022-07-17T12:58:35;21.20;99.90
10282;DHT22;5186;59.472;18.048;2022-07-17T13:01:02;21.10;99.90
10282;DHT22;5186;59.472;18.048;2022-07-17T13:03:29;21.20;99.90
10282;DHT22;5186;59.472;18.048;2022-07-17T13:05:54;21.30;99.90
10282;DHT22;5186;59.472;18.048;2022-07-17T13:08:29;21.30;99.90
10282;DHT22;5186;59.472;18.048;2022-07-17T13:10:56;21.40;99.90
10282;DHT22;5186;59.472;18.048;2022-07-17T13:13:22;21.40;99.90
10282;DHT22;5186;59.472;18.048;2022-07-17T13:15:48;21.40;99.90
10282;DHT22;5186;59.472;18.048;2022-07-17T13:18:14;21.50;99.90
10282;DHT22;5186;59.472;18.048;2022-07-17T13:20:40;21.50;99.90
10282;DHT22;5186;59.472;18.048;2022-07-17T13:23:06;21.50;99.90
10282;DHT22;5186;59.472;18.048;2022-07-17T13:25:32;21.60;99.90
10282;DHT22;5186;59.472;18.048;2022-07-17T13:27:58;21.60;99.90
10282;DHT22;5186;59.472;18.048;2022-07-17T13:30:24;21.70;99.90
10282;DHT22;5186;59.472;18.048;2022-07-17T13:32:50;21.80;99.90
10282;DHT22;5186;59.472;18.048;2022-07-17T13:35:16;22.00;99.90
10282;DHT22;5186;59.472;18.048;2022-07-17T13:37:44;22.00;99.90
10282;DHT22;5186;59.472;18.048;2022-07-17T13:40:11;22.10;99.90
10282;DHT22;5186;59.472;18.048;2022-07-17T13:42:38;22.10;99.90
10282;DHT22;5186;59.472;18.048;2022-07-17T13:45:04;22.00;99.90
10282;DHT22;5186;59.472;18.048;2022-07-17T13:47:30;22.10;99.90
10282;DHT22;5186;59.472;18.048;2022-07-17T13:49:56;22.10;99.90
10282;DHT22;5186;59.472;18.048;2022-07-17T13:52:22;22.20;99.90
10282;DHT22;5186;59.472;18.048;2022-07-17T13:54:48;22.10;99.90
10282;DHT22;5186;59.472;18.048;2022-07-17T13:57:14;22.00;99.90
10282;DHT22;5186;59.472;18.048;2022-07-17T13:59:40;22.00;99.90
10282;DHT22;5186;59.472;18.048;2022-07-17T14:02:07;22.00;99.90
10282;DHT22;5186;59.472;18.048;2022-07-17T14:04:33;22.00;99.90
10282;DHT22;5186;59.472;18.048;2022-07-17T14:06:59;22.00;99.90
10282;DHT22;5186;59.472;18.048;2022-07-17T14:09:38;22.00;99.90
10282;DHT22;5186;59.472;18.048;2022-07-17T14:12:15;22.00;99.90
10282;DHT22;5186;59.472;18.048;2022-07-17T14:14:41;22.00;99.90
10282;DHT22;5186;59.472;18.048;2022-07-17T14:17:07;22.10;99.90
10282;DHT22;5186;59.472;18.048;2022-07-17T14:19:33;22.00;99.90
10282;DHT22;5186;59.472;18.048;2022-07-17T14:22:01;22.10;99.90
10282;DHT22;5186;59.472;18.048;2022-07-17T14:24:27;22.00;99.90
10282;DHT22;5186;59.472;18.048;2022-07-17T14:26:53;22.00;99.90
10282;DHT22;5186;59.472;18.048;2022-07-17T14:29:18;22.00;99.90
10282;DHT22;5186;59.472;18.048;2022-07-17T14:31:45;22.00;99.90
10282;DHT22;5186;59.472;18.048;2022-07-17T14:34:13;22.00;99.90
10282;DHT22;5186;59.472;18.048;2022-07-17T14:36:39;22.10;99.90
10282;DHT22;5186;59.472;18.048;2022-07-17T14:39:06;22.20;99.90
10282;DHT22;5186;59.472;18.048;2022-07-17T14:41:32;22.30;99.90
10282;DHT22;5186;59.472;18.048;2022-07-17T14:43:58;22.30;99.90
10282;DHT22;5186;59.472;18.048;2022-07-17T14:46:24;22.40;99.90
10282;DHT22;5186;59.472;18.048;2022-07-17T14:48:50;22.50;99.90
10282;DHT22;5186;59.472;18.048;2022-07-17T14:51:16;22.50;99.90
10282;DHT22;5186;59.472;18.048;2022-07-17T14:53:42;22.40;99.90
10282;DHT22;5186;59.472;18.048;2022-07-17T14:56:08;22.30;99.90
10282;DHT22;5186;59.472;18.048;2022-07-17T14:58:34;22.30;99.90
10282;DHT22;5186;59.472;18.048;2022-07-17T15:01:01;22.30;99.90
10282;DHT22;5186;59.472;18.048;2022-07-17T15:03:27;22.20;99.90
10282;DHT22;5186;59.472;18.048;2022-07-17T15:05:52;22.20;99.90
10282;DHT22;5186;59.472;18.048;2022-07-17T15:08:41;22.20;99.90
10282;DHT22;5186;59.472;18.048;2022-07-17T15:11:35;22.20;99.90
10282;DHT22;5186;59.472;18.048;2022-07-17T15:14:15;22.20;99.90
10282;DHT22;5186;59.472;18.048;2022-07-17T15:16:41;22.10;99.90
10282;DHT22;5186;59.472;18.048;2022-07-17T15:19:07;22.10;99.90
10282;DHT22;5186;59.472;18.048;2022-07-17T15:21:33;22.00;99.90
10282;DHT22;5186;59.472;18.048;2022-07-17T15:23:59;22.00;99.90
10282;DHT22;5186;59.472;18.048;2022-07-17T15:26:25;22.10;99.90
10282;DHT22;5186;59.472;18.048;2022-07-17T15:28:51;22.10;99.90
10282;DHT22;5186;59.472;18.048;2022-07-17T15:31:17;22.10;99.90
10282;DHT22;5186;59.472;18.048;2022-07-17T15:33:43;22.20;99.90
10282;DHT22;5186;59.472;18.048;2022-07-17T15:36:17;22.20;99.90
10282;DHT22;5186;59.472;18.048;2022-07-17T15:38:55;22.10;99.90
10282;DHT22;5186;59.472;18.048;2022-07-17T15:41:25;22.10;99.90
10282;DHT22;5186;59.472;18.048;2022-07-17T15:43:51;22.00;99.90
10282;DHT22;5186;59.472;18.048;2022-07-17T15:46:18;21.80;99.90
10282;DHT22;5186;59.472;18.048;2022-07-17T15:48:44;21.80;99.90
10282;DHT22;5186;59.472;18.048;2022-07-17T15:51:10;21.80;99.90
10282;DHT22;5186;59.472;18.048;2022-07-17T15:53:37;21.80;99.90